Time,TemperatureF,DewpointF,PressureIn,WindDirection,WindDirectionDegrees,WindSpeedMPH,WindSpeedGustMPH,Humidity,HourlyPrecipIn,Conditions,Clouds,dailyrainin,SoftwareType,DateUTC
2013-07-09 00:02:00,84.0,-99.9,-100.00,SW,233,6.0,6.0,-999,-99.99,,,-99.99,,2013-07-09 06:02:00,
2013-07-09 00:34:00,83.0,-99.9,-100.00,SW,218,8.0,9.0,-999,-99.99,,,-99.99,,2013-07-09 06:34:00,
2013-07-09 02:20:00,80.0,-99.9,-100.00,WSW,253,4.0,7.0,-999,-99.99,,,-99.99,,2013-07-09 08:20:00,
2013-07-09 03:12:00,80.0,-99.9,-100.00,WSW,253,4.0,7.0,-999,-99.99,,,-99.99,,2013-07-09 09:12:00,
2013-07-09 03:43:00,80.0,-99.9,-100.00,WSW,237,5.0,5.0,-999,-99.99,,,-99.99,,2013-07-09 09:43:00,
2013-07-09 04:50:00,76.0,-99.9,-100.00,WSW,239,2.0,4.0,-999,-99.99,,,-99.99,,2013-07-09 10:50:00,
2013-07-09 05:11:00,77.0,-99.9,-100.00,WSW,254,5.0,6.0,-999,-99.99,,,-99.99,,2013-07-09 11:11:00,
2013-07-09 05:42:00,76.0,-99.9,-100.00,WSW,239,2.0,4.0,-999,-99.99,,,-99.99,,2013-07-09 11:42:00,
2013-07-09 06:12:00,76.0,-99.9,-100.00,SW,232,4.0,4.0,-999,-99.99,,,-99.99,,2013-07-09 12:12:00,
2013-07-09 06:22:00,76.0,-99.9,-100.00,SW,232,4.0,4.0,-999,-99.99,,,-99.99,,2013-07-09 12:22:00,
2013-07-09 09:12:00,83.0,-99.9,-100.00,SSW,200,3.0,5.0,-999,-99.99,,,-99.99,,2013-07-09 15:12:00,
2013-07-09 09:22:00,83.0,-99.9,-100.00,SSW,200,3.0,5.0,-999,-99.99,,,-99.99,,2013-07-09 15:22:00,
2013-07-09 12:11:00,93.0,-99.9,-100.00,WSW,240,2.0,4.0,-999,-99.99,,,-99.99,,2013-07-09 18:11:00,
2013-07-09 12:20:00,96.0,-99.9,-100.00,WSW,256,3.0,7.0,-999,-99.99,,,-99.99,,2013-07-09 18:20:00,
2013-07-09 12:22:00,93.0,-99.9,-100.00,WSW,240,2.0,4.0,-999,-99.99,,,-99.99,,2013-07-09 18:22:00,
2013-07-09 13:11:00,96.0,-99.9,-100.00,WSW,256,3.0,7.0,-999,-99.99,,,-99.99,,2013-07-09 19:11:00,
2013-07-09 16:00:00,104.0,-99.9,-100.00,SW,227,3.0,3.0,-999,-99.99,,,-99.99,,2013-07-09 22:00:00,
2013-07-09 16:53:00,104.0,-99.9,-100.00,SW,227,3.0,3.0,-999,-99.99,,,-99.99,,2013-07-09 22:53:00,
2013-07-09 18:22:00,95.0,-99.9,-100.00,SSW,193,3.0,6.0,-999,-99.99,,,-99.99,,2013-07-10 00:22:00,
2013-07-09 18:33:00,95.0,-99.9,-100.00,SSW,193,3.0,6.0,-999,-99.99,,,-99.99,,2013-07-10 00:33:00,
2013-07-09 18:50:00,94.0,-99.9,-100.00,WSW,237,3.0,4.0,-999,-99.99,,,-99.99,,2013-07-10 00:50:00,
2013-07-09 19:43:00,94.0,-99.9,-100.00,WSW,237,3.0,4.0,-999,-99.99,,,-99.99,,2013-07-10 01:43:00,
2013-07-09 20:02:00,92.0,-99.9,-100.00,WSW,255,3.0,5.0,-999,-99.99,,,-99.99,,2013-07-10 02:02:00,
2013-07-09 20:12:00,92.0,-99.9,-100.00,WSW,255,3.0,5.0,-999,-99.99,,,-99.99,,2013-07-10 02:12:00,
2013-07-09 20:23:00,92.0,-99.9,-100.00,WSW,255,3.0,5.0,-999,-99.99,,,-99.99,,2013-07-10 02:23:00,
2013-07-09 21:50:00,87.0,-99.9,-100.00,WSW,243,6.0,8.0,-999,-99.99,,,-99.99,,2013-07-10 03:50:00,
2013-07-09 22:43:00,87.0,-99.9,-100.00,WSW,243,6.0,8.0,-999,-99.99,,,-99.99,,2013-07-10 04:43:00,
2013-07-09 23:50:00,81.0,-99.9,-100.00,SW,225,3.0,3.0,-999,-99.99,,,-99.99,,2013-07-10 05:50:00,